Time,TemperatureF,DewpointF,PressureIn,WindDirection,WindDirectionDegrees,WindSpeedMPH,WindSpeedGustMPH,Humidity,HourlyPrecipIn,Conditions,Clouds,dailyrainin,SoftwareType,DateUTC
2013-04-30 00:03:00,53.6,44.2,-100.00,NNW,335,0.0,2.5,71,0.00,,,0.00,WSDL version 423,2013-04-30 04:03:00,
2013-04-30 00:06:00,53.6,44.4,-100.00,WNW,283,0.7,2.5,71,0.00,,,0.00,WSDL version 423,2013-04-30 04:06:00,
2013-04-30 00:09:00,53.6,44.4,-100.00,West,270,0.0,2.5,71,0.00,,,0.00,WSDL version 423,2013-04-30 04:09:00,
2013-04-30 00:12:00,53.5,44.3,-100.00,West,270,0.0,2.5,71,0.00,,,0.00,WSDL version 423,2013-04-30 04:12:00,
2013-04-30 00:18:00,53.4,44.3,-100.00,NW,315,0.0,0.0,71,0.00,,,0.00,WSDL version 423,2013-04-30 04:18:00,
2013-04-30 00:24:00,53.4,44.2,-100.00,NW,315,0.0,1.3,71,0.00,,,0.00,WSDL version 423,2013-04-30 04:24:00,
2013-04-30 00:30:00,53.2,44.1,-100.00,West,270,0.0,1.3,71,0.00,,,0.00,WSDL version 423,2013-04-30 04:30:00,
2013-04-30 00:36:00,53.2,44.1,-100.00,West,270,0.0,0.9,71,-99.99,,,-99.99,WSDL version 423,2013-04-30 04:36:00,
2013-04-30 00:42:00,53.2,44.1,-100.00,West,259,0.0,2.5,72,0.00,,,0.00,WSDL version 423,2013-04-30 04:42:00,
2013-04-30 00:48:00,53.2,44.1,-100.00,NW,315,0.8,2.7,72,0.00,,,0.00,WSDL version 423,2013-04-30 04:48:00,
2013-04-30 00:54:00,53.2,44.1,-100.00,North,354,0.8,2.7,71,0.00,,,0.00,WSDL version 423,2013-04-30 04:54:00,
2013-04-30 01:00:00,53.1,44.0,-100.00,North,360,0.3,2.2,72,0.00,,,0.00,WSDL version 423,2013-04-30 05:00:00,
2013-04-30 01:06:00,53.1,43.9,-100.00,NW,315,0.0,2.0,71,0.00,,,0.00,WSDL version 423,2013-04-30 05:06:00,
2013-04-30 01:12:00,53.1,43.9,-100.00,WNW,300,0.0,1.6,71,-99.99,,,-99.99,WSDL version 423,2013-04-30 05:12:00,
2013-04-30 01:18:00,53.1,43.9,-100.00,WNW,285,0.3,1.6,71,-99.99,,,-99.99,WSDL version 423,2013-04-30 05:18:00,
2013-04-30 01:24:00,53.1,43.9,-100.00,West,270,0.5,2.7,71,-99.99,,,-99.99,WSDL version 423,2013-04-30 05:24:00,
2013-04-30 01:30:00,53.1,44.2,-100.00,NW,309,0.3,2.7,72,0.00,,,0.00,WSDL version 423,2013-04-30 05:30:00,
2013-04-30 01:36:00,53.0,44.2,-100.00,WNW,287,0.0,2.7,72,0.00,,,0.00,WSDL version 423,2013-04-30 05:36:00,
2013-04-30 01:42:00,52.9,44.1,-100.00,SW,233,0.2,2.2,72,0.00,,,0.00,WSDL version 423,2013-04-30 05:42:00,
2013-04-30 01:48:00,52.8,44.0,-100.00,West,270,0.3,3.4,72,0.00,,,0.00,WSDL version 423,2013-04-30 05:48:00,
2013-04-30 01:54:00,52.9,44.1,-100.00,NW,304,0.0,3.4,72,0.00,,,0.00,WSDL version 423,2013-04-30 05:54:00,
2013-04-30 02:00:00,52.8,44.0,-100.00,West,270,1.0,2.7,72,0.00,,,0.00,WSDL version 423,2013-04-30 06:00:00,
2013-04-30 02:06:00,52.7,44.0,-100.00,WNW,289,0.8,2.2,72,0.00,,,0.00,WSDL version 423,2013-04-30 06:06:00,
2013-04-30 02:12:00,52.8,44.0,-100.00,West,270,0.0,1.6,72,0.00,,,0.00,WSDL version 423,2013-04-30 06:12:00,
2013-04-30 02:18:00,52.7,43.9,-100.00,NW,315,0.0,0.0,72,-99.99,,,-99.99,WSDL version 423,2013-04-30 06:18:00,
2013-04-30 02:24:00,52.6,44.1,-100.00,WNW,285,0.0,0.0,73,0.00,,,0.00,WSDL version 423,2013-04-30 06:24:00,
2013-04-30 02:30:00,52.5,44.1,-100.00,NW,304,0.3,2.7,73,-99.99,,,-99.99,WSDL version 423,2013-04-30 06:30:00,
2013-04-30 02:36:00,52.3,44.0,-100.00,West,270,0.0,2.7,73,0.00,,,0.00,WSDL version 423,2013-04-30 06:36:00,
2013-04-30 02:42:00,52.3,44.0,-100.00,WSW,243,0.0,0.0,73,0.00,,,0.00,WSDL version 423,2013-04-30 06:42:00,
2013-04-30 02:48:00,52.3,44.0,-100.00,SSW,203,0.0,0.0,73,-99.99,,,-99.99,WSDL version 423,2013-04-30 06:48:00,
2013-04-30 02:54:00,52.3,44.2,-100.00,WSW,239,0.0,0.0,74,0.00,,,0.00,WSDL version 423,2013-04-30 06:54:00,
2013-04-30 03:00:00,52.2,44.1,-100.00,NW,315,0.0,1.3,74,0.00,,,0.00,WSDL version 423,2013-04-30 07:00:00,
2013-04-30 03:06:00,52.2,44.1,-100.00,NW,315,0.0,1.3,74,0.00,,,0.00,WSDL version 423,2013-04-30 07:06:00,
2013-04-30 03:12:00,52.2,44.1,-100.00,North,352,0.0,1.6,74,0.00,,,0.00,WSDL version 423,2013-04-30 07:12:00,
2013-04-30 03:18:00,52.2,44.1,-100.00,NE,45,0.0,1.3,74,0.00,,,0.00,WSDL version 423,2013-04-30 07:18:00,
2013-04-30 03:24:00,52.2,44.1,-100.00,NW,315,0.0,0.0,74,0.00,,,0.00,WSDL version 423,2013-04-30 07:24:00,
2013-04-30 03:30:00,52.2,44.1,-100.00,West,276,0.0,0.9,74,0.00,,,0.00,WSDL version 423,2013-04-30 07:30:00,
2013-04-30 03:36:00,52.1,44.1,-100.00,WNW,296,0.0,0.9,74,0.00,,,0.00,WSDL version 423,2013-04-30 07:36:00,
2013-04-30 03:42:00,52.2,44.1,-100.00,WNW,300,0.0,0.0,74,0.00,,,0.00,WSDL version 423,2013-04-30 07:42:00,
2013-04-30 03:48:00,52.2,44.3,-100.00,NW,315,0.0,0.0,74,-99.99,,,-99.99,WSDL version 423,2013-04-30 07:48:00,
2013-04-30 03:54:00,52.2,44.3,-100.00,West,270,0.0,1.6,74,-99.99,,,-99.99,WSDL version 423,2013-04-30 07:54:00,
2013-04-30 04:00:00,52.2,44.5,-100.00,North,360,0.0,0.0,75,0.00,,,0.00,WSDL version 423,2013-04-30 08:00:00,
2013-04-30 04:06:00,52.2,44.5,-100.00,WSW,256,0.0,2.7,75,0.00,,,0.00,WSDL version 423,2013-04-30 08:06:00,
2013-04-30 04:12:00,52.2,44.5,-100.00,WNW,287,0.0,0.9,75,0.00,,,0.00,WSDL version 423,2013-04-30 08:12:00,
2013-04-30 04:18:00,52.2,44.5,-100.00,NNW,328,0.0,2.2,75,0.00,,,0.00,WSDL version 423,2013-04-30 08:18:00,
2013-04-30 04:24:00,52.2,44.5,-100.00,West,270,0.0,2.2,75,-99.99,,,-99.99,WSDL version 423,2013-04-30 08:24:00,
2013-04-30 04:30:00,52.2,44.5,-100.00,West,270,0.0,1.1,75,0.00,,,0.00,WSDL version 423,2013-04-30 08:30:00,
2013-04-30 04:36:00,52.2,44.5,-100.00,West,279,0.4,0.9,75,0.00,,,0.00,WSDL version 423,2013-04-30 08:36:00,
2013-04-30 04:42:00,52.3,44.6,-100.00,NW,304,0.0,2.0,75,-99.99,,,-99.99,WSDL version 423,2013-04-30 08:42:00,
2013-04-30 04:48:00,52.3,44.7,-100.00,NW,315,0.0,1.3,75,0.00,,,0.00,WSDL version 423,2013-04-30 08:48:00,
2013-04-30 04:54:00,52.3,44.7,-100.00,NW,315,0.0,0.0,75,-99.99,,,-99.99,WSDL version 423,2013-04-30 08:54:00,
2013-04-30 05:00:00,52.3,44.7,-100.00,West,270,0.0,0.0,75,0.00,,,0.00,WSDL version 423,2013-04-30 09:00:00,
2013-04-30 05:06:00,52.3,44.7,-100.00,North,6,0.0,0.0,75,0.00,,,0.00,WSDL version 423,2013-04-30 09:06:00,
2013-04-30 05:12:00,52.3,44.7,-100.00,West,270,0.0,0.0,75,0.00,,,0.00,WSDL version 423,2013-04-30 09:12:00,
2013-04-30 05:18:00,52.3,44.7,-100.00,West,270,0.0,0.0,75,0.00,,,0.00,WSDL version 423,2013-04-30 09:18:00,
2013-04-30 05:24:00,52.5,44.8,-100.00,West,276,0.0,1.3,75,0.00,,,0.00,WSDL version 423,2013-04-30 09:24:00,
2013-04-30 05:30:00,52.5,44.8,-100.00,West,280,0.0,1.3,75,0.00,,,0.00,WSDL version 423,2013-04-30 09:30:00,
2013-04-30 05:36:00,52.5,44.8,-100.00,WNW,296,0.0,0.0,75,-99.99,,,-99.99,WSDL version 423,2013-04-30 09:36:00,
2013-04-30 05:42:00,52.5,44.6,-100.00,NW,315,0.0,0.0,74,0.00,,,0.00,WSDL version 423,2013-04-30 09:42:00,
2013-04-30 05:48:00,52.5,44.5,-100.00,NW,315,0.0,0.0,74,-99.99,,,-99.99,WSDL version 423,2013-04-30 09:48:00,
2013-04-30 05:54:00,52.5,44.6,-100.00,NW,315,0.0,0.0,75,0.00,,,0.00,WSDL version 423,2013-04-30 09:54:00,
2013-04-30 06:00:00,52.5,44.8,-100.00,NW,315,0.0,0.0,75,0.00,,,0.00,WSDL version 423,2013-04-30 10:00:00,
2013-04-30 06:06:00,52.5,44.8,-100.00,NW,315,0.0,0.0,75,0.00,,,0.00,WSDL version 423,2013-04-30 10:06:00,
2013-04-30 06:12:00,52.5,44.8,-100.00,NW,315,0.0,0.0,75,0.00,,,0.00,WSDL version 423,2013-04-30 10:12:00,
2013-04-30 06:18:00,52.5,44.8,-100.00,SSW,203,0.0,0.9,75,0.00,,,0.00,WSDL version 423,2013-04-30 10:18:00,
2013-04-30 06:24:00,52.5,44.8,-100.00,SW,225,0.0,0.0,75,0.00,,,0.00,WSDL version 423,2013-04-30 10:24:00,
2013-04-30 06:30:00,52.6,44.9,-100.00,SW,225,0.0,0.0,75,0.00,,,0.00,WSDL version 423,2013-04-30 10:30:00,
2013-04-30 06:36:00,52.7,45.0,-100.00,SW,225,0.0,0.0,75,0.00,,,0.00,WSDL version 423,2013-04-30 10:36:00,
2013-04-30 06:42:00,52.9,45.2,-100.00,SW,225,0.0,0.0,75,0.00,,,0.00,WSDL version 423,2013-04-30 10:42:00,
2013-04-30 06:48:00,53.0,45.3,-100.00,West,270,0.0,0.0,75,-99.99,,,-99.99,WSDL version 423,2013-04-30 10:48:00,
2013-04-30 06:54:00,53.1,45.4,-100.00,West,270,0.0,0.0,75,-99.99,,,-99.99,WSDL version 423,2013-04-30 10:54:00,
2013-04-30 07:00:00,53.4,45.6,-100.00,West,280,0.0,0.0,75,-99.99,,,-99.99,WSDL version 423,2013-04-30 11:00:00,
2013-04-30 07:06:00,53.5,45.8,-100.00,NNW,344,0.0,0.0,75,-99.99,,,-99.99,WSDL version 423,2013-04-30 11:06:00,
2013-04-30 07:12:00,53.7,45.6,-100.00,NNW,338,0.0,0.0,74,-99.99,,,-99.99,WSDL version 423,2013-04-30 11:12:00,
2013-04-30 07:18:00,53.8,45.7,-100.00,West,270,0.0,1.3,74,-99.99,,,-99.99,WSDL version 423,2013-04-30 11:18:00,
2013-04-30 07:24:00,54.0,45.9,-100.00,WNW,284,1.2,2.0,74,0.00,,,0.00,WSDL version 423,2013-04-30 11:24:00,
2013-04-30 07:30:00,54.1,46.0,-100.00,NW,315,0.0,2.0,74,0.00,,,0.00,WSDL version 423,2013-04-30 11:30:00,
2013-04-30 07:36:00,54.3,46.2,-100.00,WSW,256,0.0,0.9,74,-99.99,,,-99.99,WSDL version 423,2013-04-30 11:36:00,
2013-04-30 07:42:00,54.4,45.9,-100.00,NW,326,0.7,2.0,73,0.00,,,0.00,WSDL version 423,2013-04-30 11:42:00,
2013-04-30 07:48:00,54.5,46.0,-100.00,West,270,0.8,3.1,73,-99.99,,,-99.99,WSDL version 423,2013-04-30 11:48:00,
2013-04-30 07:54:00,54.7,46.0,-100.00,WNW,293,1.6,3.4,72,-99.99,,,-99.99,WSDL version 423,2013-04-30 11:54:00,
2013-04-30 08:00:00,54.9,46.1,-100.00,WSW,253,0.4,3.4,72,0.00,,,0.00,WSDL version 423,2013-04-30 12:00:00,
2013-04-30 08:06:00,55.2,46.3,-100.00,NW,315,1.8,2.9,72,-99.99,,,-99.99,WSDL version 423,2013-04-30 12:06:00,
2013-04-30 08:12:00,55.4,46.2,-100.00,West,278,1.0,3.1,71,0.00,,,0.00,WSDL version 423,2013-04-30 12:12:00,
2013-04-30 08:18:00,55.6,46.0,-100.00,West,275,1.0,3.1,70,0.00,,,0.00,WSDL version 423,2013-04-30 12:18:00,
2013-04-30 08:24:00,55.9,46.3,-100.00,WNW,298,0.0,3.1,70,0.00,,,0.00,WSDL version 423,2013-04-30 12:24:00,
2013-04-30 08:30:00,56.1,46.1,-100.00,WNW,298,0.0,1.6,69,-99.99,,,-99.99,WSDL version 423,2013-04-30 12:30:00,
2013-04-30 08:36:00,56.3,46.2,-100.00,WSW,254,0.4,2.5,69,-99.99,,,-99.99,WSDL version 423,2013-04-30 12:36:00,
2013-04-30 08:42:00,56.5,46.1,-100.00,NNW,335,0.0,2.5,68,-99.99,,,-99.99,WSDL version 423,2013-04-30 12:42:00,
2013-04-30 08:48:00,56.8,46.2,-100.00,West,276,1.0,2.5,67,0.00,,,0.00,WSDL version 423,2013-04-30 12:48:00,
2013-04-30 08:54:00,57.1,46.3,-100.00,SW,225,0.0,2.5,67,0.00,,,0.00,WSDL version 423,2013-04-30 12:54:00,
2013-04-30 09:00:00,57.4,46.1,-100.00,NNW,338,0.4,2.5,66,-99.99,,,-99.99,WSDL version 423,2013-04-30 13:00:00,
2013-04-30 09:06:00,57.6,46.0,-100.00,South,177,0.0,2.5,65,-99.99,,,-99.99,WSDL version 423,2013-04-30 13:06:00,
2013-04-30 09:12:00,57.7,46.0,-100.00,NNW,338,0.0,2.5,65,-99.99,,,-99.99,WSDL version 423,2013-04-30 13:12:00,
2013-04-30 09:18:00,57.9,45.9,-100.00,WNW,290,0.3,2.5,64,-99.99,,,-99.99,WSDL version 423,2013-04-30 13:18:00,
2013-04-30 09:24:00,58.0,45.8,-100.00,NW,315,0.5,3.1,63,0.00,,,0.00,WSDL version 423,2013-04-30 13:24:00,
2013-04-30 09:30:00,58.1,45.6,-100.00,West,281,0.9,4.0,63,0.00,,,0.00,WSDL version 423,2013-04-30 13:30:00,
2013-04-30 09:36:00,58.4,45.7,-100.00,WNW,302,1.7,4.0,62,-99.99,,,-99.99,WSDL version 423,2013-04-30 13:36:00,
2013-04-30 09:42:00,58.7,45.7,-100.00,South,190,1.4,3.1,61,0.00,,,0.00,WSDL version 423,2013-04-30 13:42:00,
2013-04-30 09:48:00,58.8,45.1,-100.00,WNW,299,0.9,2.7,60,0.00,,,0.00,WSDL version 423,2013-04-30 13:48:00,
2013-04-30 09:54:00,59.1,44.6,-100.00,NW,312,1.2,3.1,59,0.00,,,0.00,WSDL version 423,2013-04-30 13:54:00,
2013-04-30 10:00:00,59.7,44.9,-100.00,WNW,303,1.2,4.0,58,0.00,,,0.00,WSDL version 423,2013-04-30 14:00:00,
2013-04-30 10:06:00,60.4,45.2,-100.00,WNW,293,1.7,4.0,57,0.00,,,0.00,WSDL version 423,2013-04-30 14:06:00,
2013-04-30 10:12:00,60.5,45.1,-100.00,WNW,283,2.0,4.3,56,0.00,,,0.00,WSDL version 423,2013-04-30 14:12:00,
2013-04-30 10:18:00,61.1,45.1,-100.00,WNW,286,1.5,4.0,56,0.00,,,0.00,WSDL version 423,2013-04-30 14:18:00,
2013-04-30 10:24:00,61.4,45.1,-100.00,WNW,287,2.7,4.3,55,0.00,,,0.00,WSDL version 423,2013-04-30 14:24:00,
2013-04-30 10:30:00,61.9,45.5,-100.00,North,360,1.8,4.3,54,-99.99,,,-99.99,WSDL version 423,2013-04-30 14:30:00,
2013-04-30 10:36:00,62.3,45.5,-100.00,West,270,1.3,3.4,54,0.00,,,0.00,WSDL version 423,2013-04-30 14:36:00,
2013-04-30 10:42:00,63.1,45.8,-100.00,WNW,302,2.2,3.6,53,-99.99,,,-99.99,WSDL version 423,2013-04-30 14:42:00,
2013-04-30 10:48:00,63.3,45.5,-100.00,NW,307,2.1,4.3,52,-99.99,,,-99.99,WSDL version 423,2013-04-30 14:48:00,
2013-04-30 10:54:00,63.7,45.6,-100.00,NW,323,2.7,4.9,51,-99.99,,,-99.99,WSDL version 423,2013-04-30 14:54:00,
2013-04-30 11:00:00,64.2,45.9,-100.00,WNW,293,2.3,4.9,51,-99.99,,,-99.99,WSDL version 423,2013-04-30 15:00:00,
2013-04-30 11:06:00,64.7,45.5,-100.00,NW,307,2.6,4.3,49,-99.99,,,-99.99,WSDL version 423,2013-04-30 15:06:00,
2013-04-30 11:12:00,64.8,45.3,-100.00,WNW,283,1.5,4.3,49,-99.99,,,-99.99,WSDL version 423,2013-04-30 15:12:00,
2013-04-30 11:18:00,65.2,45.0,-100.00,West,276,2.6,4.5,48,-99.99,,,-99.99,WSDL version 423,2013-04-30 15:18:00,
2013-04-30 11:24:00,65.7,45.6,-100.00,WSW,256,2.0,4.5,49,-99.99,,,-99.99,WSDL version 423,2013-04-30 15:24:00,
2013-04-30 11:30:00,65.9,45.8,-100.00,WNW,289,2.1,4.7,48,-99.99,,,-99.99,WSDL version 423,2013-04-30 15:30:00,
2013-04-30 11:36:00,66.4,45.7,-100.00,NW,323,2.3,4.0,47,-99.99,,,-99.99,WSDL version 423,2013-04-30 15:36:00,
2013-04-30 11:42:00,66.6,45.4,-100.00,West,266,2.3,4.7,47,-99.99,,,-99.99,WSDL version 423,2013-04-30 15:42:00,
2013-04-30 11:48:00,66.4,45.5,-100.00,West,281,2.5,6.0,47,-99.99,,,-99.99,WSDL version 423,2013-04-30 15:48:00,
2013-04-30 11:54:00,66.7,45.2,-100.00,NW,304,3.1,6.0,44,-99.99,,,-99.99,WSDL version 423,2013-04-30 15:54:00,
2013-04-30 12:00:00,66.5,44.5,-100.00,WNW,300,3.4,6.5,45,-99.99,,,-99.99,WSDL version 423,2013-04-30 16:00:00,
2013-04-30 12:06:00,66.3,44.4,-100.00,WNW,287,1.9,6.5,45,-99.99,,,-99.99,WSDL version 423,2013-04-30 16:06:00,
2013-04-30 12:12:00,66.7,45.3,-100.00,NW,312,3.1,4.3,46,0.00,,,0.00,WSDL version 423,2013-04-30 16:12:00,
2013-04-30 12:18:00,66.7,44.1,-100.00,NW,305,3.5,6.5,44,-99.99,,,-99.99,WSDL version 423,2013-04-30 16:18:00,
2013-04-30 12:24:00,66.8,44.6,-100.00,WNW,301,3.4,6.5,44,0.00,,,0.00,WSDL version 423,2013-04-30 16:24:00,
2013-04-30 12:30:00,67.2,44.6,-100.00,WNW,298,2.6,6.3,43,-99.99,,,-99.99,WSDL version 423,2013-04-30 16:30:00,
2013-04-30 12:36:00,66.9,44.2,-100.00,WNW,293,2.7,6.3,44,-99.99,,,-99.99,WSDL version 423,2013-04-30 16:36:00,
2013-04-30 12:42:00,66.8,44.2,-100.00,WNW,288,2.8,4.9,44,-99.99,,,-99.99,WSDL version 423,2013-04-30 16:42:00,
2013-04-30 12:48:00,67.0,44.3,-100.00,West,262,2.3,7.6,44,-99.99,,,-99.99,WSDL version 423,2013-04-30 16:48:00,
2013-04-30 12:54:00,67.3,44.6,-100.00,WNW,283,3.4,4.9,44,-99.99,,,-99.99,WSDL version 423,2013-04-30 16:54:00,
2013-04-30 13:00:00,67.1,44.3,-100.00,WNW,286,3.2,5.8,44,0.00,,,0.00,WSDL version 423,2013-04-30 17:00:00,
2013-04-30 13:06:00,67.1,44.1,-100.00,West,260,3.5,4.9,44,-99.99,,,-99.99,WSDL version 423,2013-04-30 17:06:00,
2013-04-30 13:12:00,67.3,44.0,-100.00,West,281,2.5,5.8,43,-99.99,,,-99.99,WSDL version 423,2013-04-30 17:12:00,
2013-04-30 13:18:00,67.5,44.3,-100.00,WNW,297,2.5,5.8,43,-99.99,,,-99.99,WSDL version 423,2013-04-30 17:18:00,
2013-04-30 13:24:00,67.7,43.6,-100.00,West,278,3.3,6.5,42,-99.99,,,-99.99,WSDL version 423,2013-04-30 17:24:00,
2013-04-30 13:30:00,67.5,43.4,-100.00,WNW,295,3.2,6.5,43,-99.99,,,-99.99,WSDL version 423,2013-04-30 17:30:00,
2013-04-30 13:36:00,67.5,43.3,-100.00,NW,315,3.7,5.6,41,-99.99,,,-99.99,WSDL version 423,2013-04-30 17:36:00,
2013-04-30 13:42:00,67.7,43.3,-100.00,West,276,2.7,5.6,41,-99.99,,,-99.99,WSDL version 423,2013-04-30 17:42:00,
2013-04-30 13:48:00,67.8,43.3,-100.00,West,264,3.3,7.8,42,0.00,,,0.00,WSDL version 423,2013-04-30 17:48:00,
2013-04-30 13:54:00,67.7,41.5,-100.00,WNW,300,3.0,7.8,39,-99.99,,,-99.99,WSDL version 423,2013-04-30 17:54:00,
2013-04-30 14:00:00,67.6,39.6,-100.00,WNW,302,3.9,6.3,35,-99.99,,,-99.99,WSDL version 423,2013-04-30 18:00:00,
2013-04-30 14:06:00,67.7,40.1,-100.00,West,278,2.7,5.4,36,0.00,,,0.00,WSDL version 423,2013-04-30 18:06:00,
2013-04-30 14:12:00,67.9,39.6,-100.00,West,267,3.5,7.2,35,0.00,,,0.00,WSDL version 423,2013-04-30 18:12:00,
2013-04-30 14:18:00,68.0,39.2,-100.00,NW,304,3.1,7.2,35,-99.99,,,-99.99,WSDL version 423,2013-04-30 18:18:00,
2013-04-30 14:24:00,68.0,38.8,-100.00,NW,305,2.4,5.6,34,0.00,,,0.00,WSDL version 423,2013-04-30 18:24:00,
2013-04-30 14:30:00,67.9,38.7,-100.00,WSW,253,3.0,6.9,35,-99.99,,,-99.99,WSDL version 423,2013-04-30 18:30:00,
2013-04-30 14:36:00,68.0,38.3,-100.00,NNE,14,2.1,6.9,33,0.00,,,0.00,WSDL version 423,2013-04-30 18:36:00,
2013-04-30 14:42:00,68.2,38.0,-100.00,WNW,287,3.3,6.0,33,-99.99,,,-99.99,WSDL version 423,2013-04-30 18:42:00,
2013-04-30 14:48:00,68.2,38.0,-100.00,WNW,300,3.0,5.6,33,-99.99,,,-99.99,WSDL version 423,2013-04-30 18:48:00,
2013-04-30 14:54:00,68.3,38.1,-100.00,WNW,293,3.0,4.9,33,-99.99,,,-99.99,WSDL version 423,2013-04-30 18:54:00,
2013-04-30 15:00:00,68.6,37.9,-100.00,West,262,2.8,4.9,33,0.00,,,0.00,WSDL version 423,2013-04-30 19:00:00,
2013-04-30 15:06:00,68.6,38.4,-100.00,WNW,293,2.6,4.7,33,-99.99,,,-99.99,WSDL version 423,2013-04-30 19:06:00,
2013-04-30 15:12:00,68.8,38.6,-100.00,WSW,253,3.8,5.6,33,-99.99,,,-99.99,WSDL version 423,2013-04-30 19:12:00,
2013-04-30 15:18:00,68.7,38.1,-100.00,WSW,244,2.6,5.8,32,-99.99,,,-99.99,WSDL version 423,2013-04-30 19:18:00,
2013-04-30 15:24:00,69.2,38.7,-100.00,WNW,298,2.7,5.8,33,-99.99,,,-99.99,WSDL version 423,2013-04-30 19:24:00,
2013-04-30 15:30:00,69.2,36.3,-100.00,West,268,3.2,5.4,30,-99.99,,,-99.99,WSDL version 423,2013-04-30 19:30:00,
2013-04-30 15:36:00,68.9,36.3,-100.00,West,278,3.5,5.4,32,-99.99,,,-99.99,WSDL version 423,2013-04-30 19:36:00,
2013-04-30 15:42:00,68.9,36.3,-100.00,WNW,283,2.4,7.8,30,-99.99,,,-99.99,WSDL version 423,2013-04-30 19:42:00,
2013-04-30 15:48:00,69.1,35.8,-100.00,West,273,3.1,7.8,30,-99.99,,,-99.99,WSDL version 423,2013-04-30 19:48:00,
2013-04-30 15:54:00,69.4,36.7,-100.00,WNW,290,2.8,5.4,31,-99.99,,,-99.99,WSDL version 423,2013-04-30 19:54:00,
2013-04-30 16:00:00,69.4,35.6,-100.00,WNW,285,4.0,6.3,27,-99.99,,,-99.99,WSDL version 423,2013-04-30 20:00:00,
2013-04-30 16:06:00,69.4,34.2,-100.00,NW,304,2.9,6.3,28,-99.99,,,-99.99,WSDL version 423,2013-04-30 20:06:00,
2013-04-30 16:12:00,68.9,33.0,-100.00,WNW,290,3.1,4.9,25,-99.99,,,-99.99,WSDL version 423,2013-04-30 20:12:00,
2013-04-30 16:18:00,67.6,31.7,-100.00,WNW,289,2.6,4.0,28,-99.99,,,-99.99,WSDL version 423,2013-04-30 20:18:00,
2013-04-30 16:24:00,67.8,33.1,-100.00,NW,304,1.5,4.9,26,-99.99,,,-99.99,WSDL version 423,2013-04-30 20:24:00,
2013-04-30 16:30:00,68.2,32.4,-100.00,WNW,295,2.8,4.3,27,-99.99,,,-99.99,WSDL version 423,2013-04-30 20:30:00,
2013-04-30 16:36:00,67.3,32.2,-100.00,WNW,290,3.1,7.2,26,-99.99,,,-99.99,WSDL version 423,2013-04-30 20:36:00,
2013-04-30 16:42:00,67.2,32.2,-100.00,West,276,2.2,7.2,28,-99.99,,,-99.99,WSDL version 423,2013-04-30 20:42:00,
2013-04-30 16:48:00,67.9,33.2,-100.00,West,273,1.4,5.8,28,-99.99,,,-99.99,WSDL version 423,2013-04-30 20:48:00,
2013-04-30 16:54:00,68.2,33.9,-100.00,West,278,1.8,4.0,27,-99.99,,,-99.99,WSDL version 423,2013-04-30 20:54:00,
2013-04-30 17:00:00,68.2,33.0,-100.00,WSW,258,1.8,3.1,28,-99.99,,,-99.99,WSDL version 423,2013-04-30 21:00:00,
2013-04-30 17:06:00,68.0,32.9,-100.00,WNW,300,2.1,3.6,27,-99.99,,,-99.99,WSDL version 423,2013-04-30 21:06:00,
2013-04-30 17:12:00,67.5,32.5,-100.00,NW,307,2.3,5.4,27,-99.99,,,-99.99,WSDL version 423,2013-04-30 21:12:00,
2013-04-30 17:18:00,67.8,32.4,-100.00,WNW,295,2.3,5.4,27,-99.99,,,-99.99,WSDL version 423,2013-04-30 21:18:00,
2013-04-30 17:24:00,66.3,31.0,-100.00,WNW,298,2.1,5.4,27,-99.99,,,-99.99,WSDL version 423,2013-04-30 21:24:00,
2013-04-30 17:30:00,65.1,30.6,-100.00,NNW,335,2.2,6.0,26,-99.99,,,-99.99,WSDL version 423,2013-04-30 21:30:00,
2013-04-30 17:36:00,64.3,30.4,-100.00,NW,305,2.2,6.0,28,-99.99,,,-99.99,WSDL version 423,2013-04-30 21:36:00,
2013-04-30 17:42:00,63.5,30.3,-100.00,NW,305,2.6,5.4,28,-99.99,,,-99.99,WSDL version 423,2013-04-30 21:42:00,
2013-04-30 17:48:00,63.3,30.4,-100.00,WNW,289,1.6,5.4,28,0.00,,,0.00,WSDL version 423,2013-04-30 21:48:00,
2013-04-30 17:54:00,63.8,30.8,-100.00,West,259,2.7,5.4,29,0.00,,,0.00,WSDL version 423,2013-04-30 21:54:00,
2013-04-30 18:00:00,64.6,30.2,-100.00,WNW,296,3.4,7.6,27,0.00,,,0.00,WSDL version 423,2013-04-30 22:00:00,
2013-04-30 18:06:00,65.3,30.6,-100.00,NW,313,1.0,7.6,28,-99.99,,,-99.99,WSDL version 423,2013-04-30 22:06:00,
2013-04-30 18:12:00,66.0,31.3,-100.00,West,270,2.8,6.0,27,0.00,,,0.00,WSDL version 423,2013-04-30 22:12:00,
2013-04-30 18:18:00,65.7,30.1,-100.00,WNW,293,2.9,6.7,26,0.00,,,0.00,WSDL version 423,2013-04-30 22:18:00,
2013-04-30 18:24:00,65.1,29.7,-100.00,WNW,303,2.5,6.7,27,0.00,,,0.00,WSDL version 423,2013-04-30 22:24:00,
2013-04-30 18:30:00,65.3,30.2,-100.00,WNW,293,2.2,6.7,27,0.00,,,0.00,WSDL version 423,2013-04-30 22:30:00,
2013-04-30 18:36:00,65.3,29.4,-100.00,NW,304,2.8,5.6,25,0.00,,,0.00,WSDL version 423,2013-04-30 22:36:00,
2013-04-30 18:42:00,65.0,29.3,-100.00,West,280,2.8,6.5,26,0.00,,,0.00,WSDL version 423,2013-04-30 22:42:00,
2013-04-30 18:48:00,64.7,29.5,-100.00,West,278,2.5,6.5,27,0.00,,,0.00,WSDL version 423,2013-04-30 22:48:00,
2013-04-30 18:54:00,63.4,28.3,-100.00,NW,312,2.6,4.7,26,0.00,,,0.00,WSDL version 423,2013-04-30 22:54:00,
2013-04-30 19:00:00,62.1,27.8,-100.00,NW,318,2.8,5.8,27,0.00,,,0.00,WSDL version 423,2013-04-30 23:00:00,
2013-04-30 19:06:00,61.2,27.9,-100.00,WNW,290,2.2,5.8,28,0.00,,,0.00,WSDL version 423,2013-04-30 23:06:00,
2013-04-30 19:12:00,60.5,27.5,-100.00,WNW,285,2.2,3.8,29,0.00,,,0.00,WSDL version 423,2013-04-30 23:12:00,
2013-04-30 19:18:00,60.0,27.6,-100.00,WNW,296,2.7,4.0,28,-99.99,,,-99.99,WSDL version 423,2013-04-30 23:18:00,
2013-04-30 19:24:00,59.4,26.5,-100.00,West,275,2.7,4.7,28,0.00,,,0.00,WSDL version 423,2013-04-30 23:24:00,
2013-04-30 19:30:00,59.0,26.4,-100.00,WNW,290,2.0,4.5,29,0.00,,,0.00,WSDL version 423,2013-04-30 23:30:00,
2013-04-30 19:36:00,58.5,26.9,-100.00,NW,323,1.6,3.8,30,0.00,,,0.00,WSDL version 423,2013-04-30 23:36:00,
2013-04-30 19:42:00,58.1,27.2,-100.00,NW,315,1.5,4.3,31,0.00,,,0.00,WSDL version 423,2013-04-30 23:42:00,
2013-04-30 19:48:00,57.7,27.3,-100.00,West,278,1.3,4.3,31,0.00,,,0.00,WSDL version 423,2013-04-30 23:48:00,
2013-04-30 19:54:00,57.3,27.5,-100.00,WNW,283,1.0,4.0,32,0.00,,,0.00,WSDL version 423,2013-04-30 23:54:00,
2013-04-30 20:00:00,56.9,27.8,-100.00,WNW,289,0.9,3.1,33,-99.99,,,-99.99,WSDL version 423,2013-05-01 00:00:00,
2013-04-30 20:06:00,56.6,28.3,-100.00,West,281,0.8,3.1,34,0.00,,,0.00,WSDL version 423,2013-05-01 00:06:00,
2013-04-30 20:12:00,56.2,28.3,-100.00,NW,304,0.7,3.1,34,-99.99,,,-99.99,WSDL version 423,2013-05-01 00:12:00,
2013-04-30 20:18:00,55.9,28.5,-100.00,WNW,293,0.3,2.2,35,0.00,,,0.00,WSDL version 423,2013-05-01 00:18:00,
2013-04-30 20:24:00,55.7,28.5,-100.00,West,278,1.2,2.5,35,-99.99,,,-99.99,WSDL version 423,2013-05-01 00:24:00,
2013-04-30 20:30:00,55.5,28.3,-100.00,NW,318,1.5,2.7,35,0.00,,,0.00,WSDL version 423,2013-05-01 00:30:00,
2013-04-30 20:36:00,55.1,28.3,-100.00,NNW,328,0.7,2.7,36,-99.99,,,-99.99,WSDL version 423,2013-05-01 00:36:00,
2013-04-30 20:42:00,54.7,28.3,-100.00,NNW,338,0.0,2.0,36,-99.99,,,-99.99,WSDL version 423,2013-05-01 00:42:00,
2013-04-30 20:48:00,54.4,28.0,-100.00,NNW,338,0.0,1.6,36,0.00,,,0.00,WSDL version 423,2013-05-01 00:48:00,
2013-04-30 20:54:00,53.9,27.6,-100.00,NNW,338,0.2,2.5,36,0.00,,,0.00,WSDL version 423,2013-05-01 00:54:00,
2013-04-30 21:00:00,53.6,27.3,-100.00,NW,315,0.0,2.5,36,0.00,,,0.00,WSDL version 423,2013-05-01 01:00:00,
2013-04-30 21:06:00,53.4,27.7,-100.00,NW,315,0.0,1.1,37,0.00,,,0.00,WSDL version 423,2013-05-01 01:06:00,
2013-04-30 21:12:00,53.1,27.5,-100.00,NW,315,0.0,1.1,37,0.00,,,0.00,WSDL version 423,2013-05-01 01:12:00,
2013-04-30 21:18:00,52.8,27.3,-100.00,NW,315,0.0,0.0,37,0.00,,,0.00,WSDL version 423,2013-05-01 01:18:00,
2013-04-30 21:24:00,52.6,27.1,-100.00,NW,315,0.0,1.1,37,0.00,,,0.00,WSDL version 423,2013-05-01 01:24:00,
2013-04-30 21:30:00,52.4,26.9,-100.00,NW,315,0.0,1.1,37,0.00,,,0.00,WSDL version 423,2013-05-01 01:30:00,
2013-04-30 21:36:00,52.2,27.3,-100.00,NNW,338,0.0,1.1,38,0.00,,,0.00,WSDL version 423,2013-05-01 01:36:00,
2013-04-30 21:42:00,51.9,27.1,-100.00,NNW,338,0.0,0.0,38,0.00,,,0.00,WSDL version 423,2013-05-01 01:42:00,
2013-04-30 21:48:00,51.6,26.9,-100.00,NNW,338,0.0,0.0,38,0.00,,,0.00,WSDL version 423,2013-05-01 01:48:00,
2013-04-30 21:54:00,51.4,26.8,-100.00,NNW,338,0.0,0.0,39,0.00,,,0.00,WSDL version 423,2013-05-01 01:54:00,
2013-04-30 22:00:00,51.3,27.2,-100.00,NNW,338,0.0,0.0,39,0.00,,,0.00,WSDL version 423,2013-05-01 02:00:00,
2013-04-30 22:06:00,51.0,26.9,-100.00,NNW,338,0.0,0.0,39,0.00,,,0.00,WSDL version 423,2013-05-01 02:06:00,
2013-04-30 22:12:00,50.6,26.6,-100.00,NNW,338,0.0,0.0,39,0.00,,,0.00,WSDL version 423,2013-05-01 02:12:00,
2013-04-30 22:18:00,50.5,26.5,-100.00,NNW,338,0.0,0.0,39,0.00,,,0.00,WSDL version 423,2013-05-01 02:18:00,
2013-04-30 22:24:00,50.3,26.8,-100.00,NNW,338,0.0,0.0,40,0.00,,,0.00,WSDL version 423,2013-05-01 02:24:00,
2013-04-30 22:30:00,50.0,26.7,-100.00,NNW,338,0.0,0.0,40,0.00,,,0.00,WSDL version 423,2013-05-01 02:30:00,
2013-04-30 22:36:00,49.8,26.9,-100.00,NNW,338,0.0,0.0,41,0.00,,,0.00,WSDL version 423,2013-05-01 02:36:00,
2013-04-30 22:42:00,49.6,26.8,-100.00,NNW,338,0.0,0.0,41,0.00,,,0.00,WSDL version 423,2013-05-01 02:42:00,
2013-04-30 22:48:00,49.3,26.7,-100.00,NNW,338,0.0,0.0,42,0.00,,,0.00,WSDL version 423,2013-05-01 02:48:00,
2013-04-30 22:54:00,49.2,26.7,-100.00,NNW,338,0.0,0.0,42,0.00,,,0.00,WSDL version 423,2013-05-01 02:54:00,
2013-04-30 23:00:00,48.9,26.8,-100.00,NNW,338,0.0,0.0,42,0.00,,,0.00,WSDL version 423,2013-05-01 03:00:00,
2013-04-30 23:06:00,48.7,26.7,-100.00,NNW,338,0.0,0.0,42,0.00,,,0.00,WSDL version 423,2013-05-01 03:06:00,
2013-04-30 23:12:00,48.6,26.5,-100.00,NNW,338,0.0,0.0,42,0.00,,,0.00,WSDL version 423,2013-05-01 03:12:00,
2013-04-30 23:18:00,48.4,26.4,-100.00,NNW,338,0.0,0.0,42,-99.99,,,-99.99,WSDL version 423,2013-05-01 03:18:00,
2013-04-30 23:24:00,48.3,26.2,-100.00,NNW,338,0.0,0.0,42,0.00,,,0.00,WSDL version 423,2013-05-01 03:24:00,
2013-04-30 23:30:00,48.2,26.3,-100.00,NNW,338,0.0,0.0,43,0.00,,,0.00,WSDL version 423,2013-05-01 03:30:00,
2013-04-30 23:36:00,48.0,26.6,-100.00,NNW,338,0.0,0.0,43,0.00,,,0.00,WSDL version 423,2013-05-01 03:36:00,
2013-04-30 23:42:00,47.8,26.4,-100.00,NNW,338,0.0,0.0,43,0.00,,,0.00,WSDL version 423,2013-05-01 03:42:00,
2013-04-30 23:48:00,47.7,26.6,-100.00,NNW,338,0.0,0.0,44,-99.99,,,-99.99,WSDL version 423,2013-05-01 03:48:00,
2013-04-30 23:54:00,47.5,26.7,-100.00,NNW,338,0.0,0.0,44,0.00,,,0.00,WSDL version 423,2013-05-01 03:54:00,